sensor_id;sensor_type;location;lat;lon;timestamp;temperature;humidity
22838;DHT22;11585;51.450;-0.240;2023-04-03T00:00:11;9.20;99.90
22838;DHT22;11585;51.450;-0.240;2023-04-03T00:02:37;9.20;99.90
22838;DHT22;11585;51.450;-0.240;2023-04-03T00:05:03;9.10;99.90
22838;DHT22;11585;51.450;-0.240;2023-04-03T00:07:29;9.10;99.90
22838;DHT22;11585;51.450;-0.240;2023-04-03T00:09:55;9.20;99.90
22838;DHT22;11585;51.450;-0.240;2023-04-03T00:12:21;9.10;99.90
22838;DHT22;11585;51.450;-0.240;2023-04-03T00:15:06;9.10;99.90
22838;DHT22;11585;51.450;-0.240;2023-04-03T00:17:31;9.10;99.90
22838;DHT22;11585;51.450;-0.240;2023-04-03T00:19:57;9.10;99.90
22838;DHT22;11585;51.450;-0.240;2023-04-03T00:22:25;9.00;99.90
22838;DHT22;11585;51.450;-0.240;2023-04-03T00:27:57;9.00;99.90
22838;DHT22;11585;51.450;-0.240;2023-04-03T00:30:23;8.90;99.90
22838;DHT22;11585;51.450;-0.240;2023-04-03T00:32:50;9.00;99.90
22838;DHT22;11585;51.450;-0.240;2023-04-03T00:35:37;9.00;99.90
22838;DHT22;11585;51.450;-0.240;2023-04-03T00:38:03;9.00;99.90
22838;DHT22;11585;51.450;-0.240;2023-04-03T00:40:37;8.90;99.90
22838;DHT22;11585;51.450;-0.240;2023-04-03T00:43:12;8.90;99.90
22838;DHT22;11585;51.450;-0.240;2023-04-03T00:49:00;8.90;99.90
22838;DHT22;11585;51.450;-0.240;2023-04-03T00:51:26;8.90;99.90
22838;DHT22;11585;51.450;-0.240;2023-04-03T00:53:56;8.90;99.90
22838;DHT22;11585;51.450;-0.240;2023-04-03T01:02:21;8.80;99.90
22838;DHT22;11585;51.450;-0.240;2023-04-03T01:08:11;8.80;99.90
22838;DHT22;11585;51.450;-0.240;2023-04-03T01:10:37;8.80;99.90
22838;DHT22;11585;51.450;-0.240;2023-04-03T01:13:35;8.80;99.90
22838;DHT22;11585;51.450;-0.240;2023-04-03T01:16:05;8.80;99.90
22838;DHT22;11585;51.450;-0.240;2023-04-03T01:18:32;8.80;99.90
22838;DHT22;11585;51.450;-0.240;2023-04-03T01:26:35;8.70;99.90
22838;DHT22;11585;51.450;-0.240;2023-04-03T01:29:02;8.80;99.90
22838;DHT22;11585;51.450;-0.240;2023-04-03T01:34:36;8.70;99.90
22838;DHT22;11585;51.450;-0.240;2023-04-03T01:37:01;8.70;99.90
22838;DHT22;11585;51.450;-0.240;2023-04-03T01:39:27;8.60;99.90
22838;DHT22;11585;51.450;-0.240;2023-04-03T01:41:53;8.60;99.90
22838;DHT22;11585;51.450;-0.240;2023-04-03T01:44:20;8.70;99.90
22838;DHT22;11585;51.450;-0.240;2023-04-03T01:46:45;8.60;99.90
22838;DHT22;11585;51.450;-0.240;2023-04-03T01:49:27;8.60;99.90
22838;DHT22;11585;51.450;-0.240;2023-04-03T01:51:52;8.60;99.90
22838;DHT22;11585;51.450;-0.240;2023-04-03T01:57:07;8.60;99.90
22838;DHT22;11585;51.450;-0.240;2023-04-03T01:59:33;8.60;99.90
22838;DHT22;11585;51.450;-0.240;2023-04-03T02:01:58;9.10;99.90
22838;DHT22;11585;51.450;-0.240;2023-04-03T02:04:24;8.60;99.90
22838;DHT22;11585;51.450;-0.240;2023-04-03T02:06:50;9.60;99.90
22838;DHT22;11585;51.450;-0.240;2023-04-03T02:09:15;8.90;99.90
22838;DHT22;11585;51.450;-0.240;2023-04-03T02:11:41;9.10;99.90
22838;DHT22;11585;51.450;-0.240;2023-04-03T02:14:07;8.50;99.90
22838;DHT22;11585;51.450;-0.240;2023-04-03T02:16:32;8.60;99.90
22838;DHT22;11585;51.450;-0.240;2023-04-03T02:19:01;8.60;99.90
22838;DHT22;11585;51.450;-0.240;2023-04-03T02:21:27;8.50;99.90
22838;DHT22;11585;51.450;-0.240;2023-04-03T02:23:53;8.50;99.90
22838;DHT22;11585;51.450;-0.240;2023-04-03T02:29:40;8.50;99.90
22838;DHT22;11585;51.450;-0.240;2023-04-03T02:32:06;8.50;99.90
22838;DHT22;11585;51.450;-0.240;2023-04-03T02:34:36;8.60;99.90
22838;DHT22;11585;51.450;-0.240;2023-04-03T02:37:01;8.50;99.90
22838;DHT22;11585;51.450;-0.240;2023-04-03T02:39:27;8.50;99.90
22838;DHT22;11585;51.450;-0.240;2023-04-03T02:41:53;8.40;99.90
22838;DHT22;11585;51.450;-0.240;2023-04-03T02:47:22;8.40;99.90
22838;DHT22;11585;51.450;-0.240;2023-04-03T02:49:47;8.50;99.90
22838;DHT22;11585;51.450;-0.240;2023-04-03T02:52:14;8.30;99.90
22838;DHT22;11585;51.450;-0.240;2023-04-03T02:54:42;8.40;99.90
22838;DHT22;11585;51.450;-0.240;2023-04-03T02:57:07;8.50;99.90
22838;DHT22;11585;51.450;-0.240;2023-04-03T02:59:36;8.40;99.90
22838;DHT22;11585;51.450;-0.240;2023-04-03T03:02:06;8.40;99.90
22838;DHT22;11585;51.450;-0.240;2023-04-03T03:04:37;8.40;99.90
22838;DHT22;11585;51.450;-0.240;2023-04-03T03:07:03;8.80;99.90
22838;DHT22;11585;51.450;-0.240;2023-04-03T03:09:29;8.30;99.90
22838;DHT22;11585;51.450;-0.240;2023-04-03T03:11:56;8.30;99.90
22838;DHT22;11585;51.450;-0.240;2023-04-03T03:17:43;8.30;99.90
22838;DHT22;11585;51.450;-0.240;2023-04-03T03:20:10;8.30;99.90
22838;DHT22;11585;51.450;-0.240;2023-04-03T03:22:38;8.20;99.90
22838;DHT22;11585;51.450;-0.240;2023-04-03T03:28:26;8.20;99.90
22838;DHT22;11585;51.450;-0.240;2023-04-03T03:30:51;8.20;99.90
22838;DHT22;11585;51.450;-0.240;2023-04-03T03:33:18;8.10;99.90
22838;DHT22;11585;51.450;-0.240;2023-04-03T03:36:05;8.20;99.90
22838;DHT22;11585;51.450;-0.240;2023-04-03T03:38:33;8.10;99.90
22838;DHT22;11585;51.450;-0.240;2023-04-03T03:40:59;8.10;99.90
22838;DHT22;11585;51.450;-0.240;2023-04-03T03:43:25;8.30;99.90
22838;DHT22;11585;51.450;-0.240;2023-04-03T03:48:56;8.00;99.90
22838;DHT22;11585;51.450;-0.240;2023-04-03T03:51:25;8.10;99.90
22838;DHT22;11585;51.450;-0.240;2023-04-03T03:53:54;8.00;99.90
22838;DHT22;11585;51.450;-0.240;2023-04-03T03:56:24;8.00;99.90
22838;DHT22;11585;51.450;-0.240;2023-04-03T03:58:50;8.70;99.90
22838;DHT22;11585;51.450;-0.240;2023-04-03T04:01:16;9.00;99.90
22838;DHT22;11585;51.450;-0.240;2023-04-03T04:03:42;7.90;99.90
22838;DHT22;11585;51.450;-0.240;2023-04-03T04:09:30;7.90;99.90
22838;DHT22;11585;51.450;-0.240;2023-04-03T04:11:55;7.80;99.90
22838;DHT22;11585;51.450;-0.240;2023-04-03T04:17:43;7.80;99.90
22838;DHT22;11585;51.450;-0.240;2023-04-03T04:20:09;7.80;99.90
22838;DHT22;11585;51.450;-0.240;2023-04-03T04:22:37;7.80;99.90
22838;DHT22;11585;51.450;-0.240;2023-04-03T04:25:07;7.80;99.90
22838;DHT22;11585;51.450;-0.240;2023-04-03T04:27:36;7.70;99.90
22838;DHT22;11585;51.450;-0.240;2023-04-03T04:30:02;7.70;99.90
22838;DHT22;11585;51.450;-0.240;2023-04-03T04:32:28;7.70;99.90
22838;DHT22;11585;51.450;-0.240;2023-04-03T04:37:58;7.70;99.90
22838;DHT22;11585;51.450;-0.240;2023-04-03T04:40:25;7.60;99.90
22838;DHT22;11585;51.450;-0.240;2023-04-03T04:42:51;7.60;99.90
22838;DHT22;11585;51.450;-0.240;2023-04-03T04:45:18;8.20;99.90
22838;DHT22;11585;51.450;-0.240;2023-04-03T04:47:43;7.60;99.90
22838;DHT22;11585;51.450;-0.240;2023-04-03T04:50:10;8.40;99.90
22838;DHT22;11585;51.450;-0.240;2023-04-03T04:52:35;7.50;99.90
22838;DHT22;11585;51.450;-0.240;2023-04-03T04:55:03;9.00;99.90
22838;DHT22;11585;51.450;-0.240;2023-04-03T04:57:28;7.50;99.90
22838;DHT22;11585;51.450;-0.240;2023-04-03T04:59:54;7.40;99.90
22838;DHT22;11585;51.450;-0.240;2023-04-03T05:02:20;7.50;99.90
22838;DHT22;11585;51.450;-0.240;2023-04-03T05:04:47;7.40;99.90
22838;DHT22;11585;51.450;-0.240;2023-04-03T05:07:12;7.40;99.90
22838;DHT22;11585;51.450;-0.240;2023-04-03T05:09:38;7.40;99.90
22838;DHT22;11585;51.450;-0.240;2023-04-03T05:12:04;7.40;99.90
22838;DHT22;11585;51.450;-0.240;2023-04-03T05:14:33;7.40;99.90
22838;DHT22;11585;51.450;-0.240;2023-04-03T05:16:58;7.40;99.90
22838;DHT22;11585;51.450;-0.240;2023-04-03T05:19:24;7.80;99.90
22838;DHT22;11585;51.450;-0.240;2023-04-03T05:21:50;7.80;99.90
22838;DHT22;11585;51.450;-0.240;2023-04-03T05:24:36;8.30;99.90
22838;DHT22;11585;51.450;-0.240;2023-04-03T05:27:02;7.30;99.90
22838;DHT22;11585;51.450;-0.240;2023-04-03T05:29:28;7.30;99.90
22838;DHT22;11585;51.450;-0.240;2023-04-03T05:31:56;8.10;99.90
22838;DHT22;11585;51.450;-0.240;2023-04-03T05:34:45;7.30;99.90
22838;DHT22;11585;51.450;-0.240;2023-04-03T05:37:10;7.30;99.90
22838;DHT22;11585;51.450;-0.240;2023-04-03T05:39:36;7.30;99.90
22838;DHT22;11585;51.450;-0.240;2023-04-03T05:42:03;7.20;99.90
22838;DHT22;11585;51.450;-0.240;2023-04-03T05:44:29;7.20;99.90
22838;DHT22;11585;51.450;-0.240;2023-04-03T05:46:55;8.50;99.90
22838;DHT22;11585;51.450;-0.240;2023-04-03T05:49:21;7.20;99.90
22838;DHT22;11585;51.450;-0.240;2023-04-03T05:51:46;8.60;99.90
22838;DHT22;11585;51.450;-0.240;2023-04-03T05:54:16;7.60;99.90
22838;DHT22;11585;51.450;-0.240;2023-04-03T05:56:43;7.20;99.90
22838;DHT22;11585;51.450;-0.240;2023-04-03T05:59:08;7.50;99.90
22838;DHT22;11585;51.450;-0.240;2023-04-03T06:01:34;7.70;99.90
22838;DHT22;11585;51.450;-0.240;2023-04-03T06:04:00;7.30;99.90
22838;DHT22;11585;51.450;-0.240;2023-04-03T06:09:30;7.20;99.90
22838;DHT22;11585;51.450;-0.240;2023-04-03T06:11:56;7.20;99.90
22838;DHT22;11585;51.450;-0.240;2023-04-03T06:14:24;7.20;99.90
22838;DHT22;11585;51.450;-0.240;2023-04-03T06:16:51;7.20;99.90
22838;DHT22;11585;51.450;-0.240;2023-04-03T06:19:17;7.40;99.90
22838;DHT22;11585;51.450;-0.240;2023-04-03T06:21:43;7.20;99.90
22838;DHT22;11585;51.450;-0.240;2023-04-03T06:24:10;7.10;99.90
22838;DHT22;11585;51.450;-0.240;2023-04-03T06:26:37;7.60;99.90
22838;DHT22;11585;51.450;-0.240;2023-04-03T06:29:03;7.20;99.90
22838;DHT22;11585;51.450;-0.240;2023-04-03T06:31:29;8.30;99.90
22838;DHT22;11585;51.450;-0.240;2023-04-03T06:33:55;8.00;99.90
22838;DHT22;11585;51.450;-0.240;2023-04-03T06:36:22;7.20;99.90
22838;DHT22;11585;51.450;-0.240;2023-04-03T06:38:48;7.20;99.90
22838;DHT22;11585;51.450;-0.240;2023-04-03T06:41:14;7.60;99.90
22838;DHT22;11585;51.450;-0.240;2023-04-03T06:43:40;7.20;99.90
22838;DHT22;11585;51.450;-0.240;2023-04-03T06:46:14;7.20;99.90
22838;DHT22;11585;51.450;-0.240;2023-04-03T06:48:43;7.20;99.90
22838;DHT22;11585;51.450;-0.240;2023-04-03T06:51:26;7.20;99.90
22838;DHT22;11585;51.450;-0.240;2023-04-03T06:53:54;7.30;99.90
22838;DHT22;11585;51.450;-0.240;2023-04-03T06:56:22;7.20;99.90
22838;DHT22;11585;51.450;-0.240;2023-04-03T06:58:48;7.30;99.90
22838;DHT22;11585;51.450;-0.240;2023-04-03T07:01:16;7.30;99.90
22838;DHT22;11585;51.450;-0.240;2023-04-03T07:03:43;7.30;99.90
22838;DHT22;11585;51.450;-0.240;2023-04-03T07:06:30;7.30;99.90
22838;DHT22;11585;51.450;-0.240;2023-04-03T07:08:57;7.40;99.90
22838;DHT22;11585;51.450;-0.240;2023-04-03T07:11:23;7.30;99.90
22838;DHT22;11585;51.450;-0.240;2023-04-03T07:13:49;8.40;99.90
22838;DHT22;11585;51.450;-0.240;2023-04-03T07:16:35;7.40;99.90
22838;DHT22;11585;51.450;-0.240;2023-04-03T07:19:01;7.40;99.90
22838;DHT22;11585;51.450;-0.240;2023-04-03T07:21:27;7.40;99.90
22838;DHT22;11585;51.450;-0.240;2023-04-03T07:23:53;6.40;99.90
22838;DHT22;11585;51.450;-0.240;2023-04-03T07:29:24;7.40;99.90
22838;DHT22;11585;51.450;-0.240;2023-04-03T07:31:49;7.40;99.90
22838;DHT22;11585;51.450;-0.240;2023-04-03T07:34:16;7.40;99.90
22838;DHT22;11585;51.450;-0.240;2023-04-03T07:36:41;7.50;99.90
22838;DHT22;11585;51.450;-0.240;2023-04-03T07:39:07;7.50;99.90
22838;DHT22;11585;51.450;-0.240;2023-04-03T07:41:33;8.10;99.90
22838;DHT22;11585;51.450;-0.240;2023-04-03T07:43:59;7.50;99.90
22838;DHT22;11585;51.450;-0.240;2023-04-03T07:46:26;7.50;99.90
22838;DHT22;11585;51.450;-0.240;2023-04-03T07:48:52;7.70;99.90
22838;DHT22;11585;51.450;-0.240;2023-04-03T07:51:18;7.60;99.90
22838;DHT22;11585;51.450;-0.240;2023-04-03T07:53:44;7.60;99.90
22838;DHT22;11585;51.450;-0.240;2023-04-03T07:56:29;8.70;99.90
22838;DHT22;11585;51.450;-0.240;2023-04-03T07:58:55;7.70;99.90
22838;DHT22;11585;51.450;-0.240;2023-04-03T08:01:20;8.60;99.90
22838;DHT22;11585;51.450;-0.240;2023-04-03T08:04:01;7.70;99.90
22838;DHT22;11585;51.450;-0.240;2023-04-03T08:06:39;7.80;99.90
22838;DHT22;11585;51.450;-0.240;2023-04-03T08:09:07;8.40;99.90
22838;DHT22;11585;51.450;-0.240;2023-04-03T08:14:33;7.80;99.90
22838;DHT22;11585;51.450;-0.240;2023-04-03T08:17:01;8.00;99.90
22838;DHT22;11585;51.450;-0.240;2023-04-03T08:19:32;7.90;99.90
22838;DHT22;11585;51.450;-0.240;2023-04-03T08:21:58;7.90;99.90
22838;DHT22;11585;51.450;-0.240;2023-04-03T08:24:28;8.00;99.90
22838;DHT22;11585;51.450;-0.240;2023-04-03T08:26:54;8.00;99.90
22838;DHT22;11585;51.450;-0.240;2023-04-03T08:29:20;9.30;99.90
22838;DHT22;11585;51.450;-0.240;2023-04-03T08:31:49;8.80;99.90
22838;DHT22;11585;51.450;-0.240;2023-04-03T08:37:05;8.20;99.90
22838;DHT22;11585;51.450;-0.240;2023-04-03T08:39:31;8.40;99.90
22838;DHT22;11585;51.450;-0.240;2023-04-03T08:41:58;9.20;99.90
22838;DHT22;11585;51.450;-0.240;2023-04-03T08:50:00;6.70;99.90
22838;DHT22;11585;51.450;-0.240;2023-04-03T08:52:48;8.40;99.90
22838;DHT22;11585;51.450;-0.240;2023-04-03T08:55:42;8.40;99.90
22838;DHT22;11585;51.450;-0.240;2023-04-03T08:58:28;8.10;99.90
22838;DHT22;11585;51.450;-0.240;2023-04-03T09:01:02;8.50;99.90
22838;DHT22;11585;51.450;-0.240;2023-04-03T09:03:31;9.10;99.90
22838;DHT22;11585;51.450;-0.240;2023-04-03T09:06:25;8.60;99.90
22838;DHT22;11585;51.450;-0.240;2023-04-03T09:15:02;7.90;99.90
22838;DHT22;11585;51.450;-0.240;2023-04-03T09:17:46;8.70;99.90
22838;DHT22;11585;51.450;-0.240;2023-04-03T09:23:16;8.80;99.90
22838;DHT22;11585;51.450;-0.240;2023-04-03T09:28:47;8.90;99.90
22838;DHT22;11585;51.450;-0.240;2023-04-03T09:31:23;9.00;99.90
22838;DHT22;11585;51.450;-0.240;2023-04-03T09:33:52;9.00;99.90
22838;DHT22;11585;51.450;-0.240;2023-04-03T09:36:53;9.00;99.90
22838;DHT22;11585;51.450;-0.240;2023-04-03T09:39:24;9.10;99.90
22838;DHT22;11585;51.450;-0.240;2023-04-03T09:42:19;9.10;99.90
22838;DHT22;11585;51.450;-0.240;2023-04-03T09:45:04;9.80;99.90
22838;DHT22;11585;51.450;-0.240;2023-04-03T09:47:37;9.20;99.90
22838;DHT22;11585;51.450;-0.240;2023-04-03T09:50:20;9.20;99.90
22838;DHT22;11585;51.450;-0.240;2023-04-03T09:52:50;9.40;99.90
22838;DHT22;11585;51.450;-0.240;2023-04-03T09:55:24;9.30;99.90
22838;DHT22;11585;51.450;-0.240;2023-04-03T09:58:03;10.20;99.90
22838;DHT22;11585;51.450;-0.240;2023-04-03T10:00:40;8.40;99.90
22838;DHT22;11585;51.450;-0.240;2023-04-03T10:03:33;9.40;99.90
22838;DHT22;11585;51.450;-0.240;2023-04-03T10:06:24;9.40;99.90
22838;DHT22;11585;51.450;-0.240;2023-04-03T10:09:01;10.20;99.90
22838;DHT22;11585;51.450;-0.240;2023-04-03T10:11:30;9.50;99.90
22838;DHT22;11585;51.450;-0.240;2023-04-03T10:14:00;10.00;99.90
22838;DHT22;11585;51.450;-0.240;2023-04-03T10:16:41;9.80;99.90
22838;DHT22;11585;51.450;-0.240;2023-04-03T10:24:49;8.50;99.90
22838;DHT22;11585;51.450;-0.240;2023-04-03T10:30:47;9.70;99.90
22838;DHT22;11585;51.450;-0.240;2023-04-03T10:36:20;9.80;99.90
22838;DHT22;11585;51.450;-0.240;2023-04-03T10:41:59;9.80;99.90
22838;DHT22;11585;51.450;-0.240;2023-04-03T10:44:51;9.80;99.90
22838;DHT22;11585;51.450;-0.240;2023-04-03T10:50:23;8.60;99.90
22838;DHT22;11585;51.450;-0.240;2023-04-03T10:56:21;9.90;99.90
22838;DHT22;11585;51.450;-0.240;2023-04-03T11:02:15;10.00;99.90
22838;DHT22;11585;51.450;-0.240;2023-04-03T11:04:43;10.00;99.90
22838;DHT22;11585;51.450;-0.240;2023-04-03T11:07:26;10.00;99.90
22838;DHT22;11585;51.450;-0.240;2023-04-03T11:09:56;10.00;99.90
22838;DHT22;11585;51.450;-0.240;2023-04-03T11:12:46;10.10;99.90
22838;DHT22;11585;51.450;-0.240;2023-04-03T11:18:47;10.10;99.90
22838;DHT22;11585;51.450;-0.240;2023-04-03T11:23:51;10.50;99.90
22838;DHT22;11585;51.450;-0.240;2023-04-03T11:29:32;10.10;99.90
22838;DHT22;11585;51.450;-0.240;2023-04-03T11:32:30;10.10;99.90
22838;DHT22;11585;51.450;-0.240;2023-04-03T11:41:10;9.40;99.90
22838;DHT22;11585;51.450;-0.240;2023-04-03T11:43:43;10.90;99.90
22838;DHT22;11585;51.450;-0.240;2023-04-03T11:46:56;10.90;99.90
22838;DHT22;11585;51.450;-0.240;2023-04-03T12:00:46;10.40;99.90
22838;DHT22;11585;51.450;-0.240;2023-04-03T12:08:50;10.40;99.90
22838;DHT22;11585;51.450;-0.240;2023-04-03T12:11:28;10.40;99.90
22838;DHT22;11585;51.450;-0.240;2023-04-03T12:19:35;10.50;99.90
22838;DHT22;11585;51.450;-0.240;2023-04-03T12:27:51;10.60;99.90
22838;DHT22;11585;51.450;-0.240;2023-04-03T12:30:29;10.60;99.90
22838;DHT22;11585;51.450;-0.240;2023-04-03T12:33:10;11.00;99.90
22838;DHT22;11585;51.450;-0.240;2023-04-03T12:39:07;10.70;99.90
22838;DHT22;11585;51.450;-0.240;2023-04-03T12:41:53;10.70;99.90
22838;DHT22;11585;51.450;-0.240;2023-04-03T12:47:29;10.80;99.90
22838;DHT22;11585;51.450;-0.240;2023-04-03T12:49:59;10.80;99.90
22838;DHT22;11585;51.450;-0.240;2023-04-03T12:52:32;10.90;99.90
22838;DHT22;11585;51.450;-0.240;2023-04-03T12:55:00;10.90;99.90
22838;DHT22;11585;51.450;-0.240;2023-04-03T12:57:30;10.90;99.90
22838;DHT22;11585;51.450;-0.240;2023-04-03T12:59:56;10.90;99.90
22838;DHT22;11585;51.450;-0.240;2023-04-03T13:02:31;11.00;99.90
22838;DHT22;11585;51.450;-0.240;2023-04-03T13:05:09;11.00;99.90
22838;DHT22;11585;51.450;-0.240;2023-04-03T13:07:39;11.00;99.90
22838;DHT22;11585;51.450;-0.240;2023-04-03T13:12:57;11.10;99.90
22838;DHT22;11585;51.450;-0.240;2023-04-03T13:15:40;11.10;99.90
22838;DHT22;11585;51.450;-0.240;2023-04-03T13:18:31;11.10;99.90
22838;DHT22;11585;51.450;-0.240;2023-04-03T13:23:29;11.20;99.90
22838;DHT22;11585;51.450;-0.240;2023-04-03T13:29:25;11.30;99.90
22838;DHT22;11585;51.450;-0.240;2023-04-03T13:31:54;11.30;99.90
22838;DHT22;11585;51.450;-0.240;2023-04-03T13:34:25;11.30;99.90
22838;DHT22;11585;51.450;-0.240;2023-04-03T13:39:32;11.30;99.90
22838;DHT22;11585;51.450;-0.240;2023-04-03T13:42:14;11.40;99.90
22838;DHT22;11585;51.450;-0.240;2023-04-03T13:48:15;11.50;99.90
22838;DHT22;11585;51.450;-0.240;2023-04-03T13:51:02;11.50;99.90
22838;DHT22;11585;51.450;-0.240;2023-04-03T13:53:31;11.50;99.90
22838;DHT22;11585;51.450;-0.240;2023-04-03T13:56:18;11.50;99.90
22838;DHT22;11585;51.450;-0.240;2023-04-03T13:58:58;11.50;99.90
22838;DHT22;11585;51.450;-0.240;2023-04-03T14:04:48;11.60;99.90
22838;DHT22;11585;51.450;-0.240;2023-04-03T14:07:16;11.60;99.90
22838;DHT22;11585;51.450;-0.240;2023-04-03T14:09:43;11.60;99.90
22838;DHT22;11585;51.450;-0.240;2023-04-03T14:12:16;11.60;99.90
22838;DHT22;11585;51.450;-0.240;2023-04-03T14:14:45;11.70;99.90
22838;DHT22;11585;51.450;-0.240;2023-04-03T14:17:18;11.70;99.90
22838;DHT22;11585;51.450;-0.240;2023-04-03T14:19:44;11.70;99.90
22838;DHT22;11585;51.450;-0.240;2023-04-03T14:22:19;11.50;99.90
22838;DHT22;11585;51.450;-0.240;2023-04-03T14:25:07;11.80;99.90
22838;DHT22;11585;51.450;-0.240;2023-04-03T14:27:36;11.80;99.90
22838;DHT22;11585;51.450;-0.240;2023-04-03T14:30:05;11.80;99.90
22838;DHT22;11585;51.450;-0.240;2023-04-03T14:32:31;11.90;99.90
22838;DHT22;11585;51.450;-0.240;2023-04-03T14:38:37;11.90;99.90
22838;DHT22;11585;51.450;-0.240;2023-04-03T14:41:03;11.90;99.90
22838;DHT22;11585;51.450;-0.240;2023-04-03T14:43:28;11.90;99.90
22838;DHT22;11585;51.450;-0.240;2023-04-03T14:49:19;12.00;99.90
22838;DHT22;11585;51.450;-0.240;2023-04-03T14:51:46;12.00;99.90
22838;DHT22;11585;51.450;-0.240;2023-04-03T14:57:34;12.10;99.90
22838;DHT22;11585;51.450;-0.240;2023-04-03T15:00:00;12.10;99.90
22838;DHT22;11585;51.450;-0.240;2023-04-03T15:02:33;12.10;99.90
22838;DHT22;11585;51.450;-0.240;2023-04-03T15:08:23;12.10;99.90
22838;DHT22;11585;51.450;-0.240;2023-04-03T15:10:52;12.10;99.90
22838;DHT22;11585;51.450;-0.240;2023-04-03T15:13:24;12.10;99.90
22838;DHT22;11585;51.450;-0.240;2023-04-03T15:16:17;12.20;99.90
22838;DHT22;11585;51.450;-0.240;2023-04-03T15:18:44;12.10;99.90
22838;DHT22;11585;51.450;-0.240;2023-04-03T15:21:11;12.20;99.90
22838;DHT22;11585;51.450;-0.240;2023-04-03T15:23:45;12.20;99.90
22838;DHT22;11585;51.450;-0.240;2023-04-03T15:26:14;12.30;99.90
22838;DHT22;11585;51.450;-0.240;2023-04-03T15:28:42;12.20;99.90
22838;DHT22;11585;51.450;-0.240;2023-04-03T15:31:09;12.20;99.90
22838;DHT22;11585;51.450;-0.240;2023-04-03T15:33:35;12.20;99.90
22838;DHT22;11585;51.450;-0.240;2023-04-03T15:39:15;12.20;99.90
22838;DHT22;11585;51.450;-0.240;2023-04-03T15:41:41;12.20;99.90
22838;DHT22;11585;51.450;-0.240;2023-04-03T15:44:17;12.30;99.90
22838;DHT22;11585;51.450;-0.240;2023-04-03T15:46:45;12.30;99.90
22838;DHT22;11585;51.450;-0.240;2023-04-03T15:49:12;12.20;99.90
22838;DHT22;11585;51.450;-0.240;2023-04-03T15:51:38;12.30;99.90
22838;DHT22;11585;51.450;-0.240;2023-04-03T15:54:04;12.30;99.90
22838;DHT22;11585;51.450;-0.240;2023-04-03T15:56:29;12.30;99.90
22838;DHT22;11585;51.450;-0.240;2023-04-03T15:58:55;12.30;99.90
22838;DHT22;11585;51.450;-0.240;2023-04-03T16:01:21;12.70;99.90
22838;DHT22;11585;51.450;-0.240;2023-04-03T16:03:54;12.30;99.90
22838;DHT22;11585;51.450;-0.240;2023-04-03T16:06:40;12.30;99.90
22838;DHT22;11585;51.450;-0.240;2023-04-03T16:09:06;12.40;99.90
22838;DHT22;11585;51.450;-0.240;2023-04-03T16:11:32;12.30;99.90
22838;DHT22;11585;51.450;-0.240;2023-04-03T16:14:08;12.40;99.90
22838;DHT22;11585;51.450;-0.240;2023-04-03T16:16:34;12.40;99.90
22838;DHT22;11585;51.450;-0.240;2023-04-03T16:19:00;12.40;99.90
22838;DHT22;11585;51.450;-0.240;2023-04-03T16:21:27;12.40;99.90
22838;DHT22;11585;51.450;-0.240;2023-04-03T16:23:53;12.40;99.90
22838;DHT22;11585;51.450;-0.240;2023-04-03T16:29:25;12.40;99.90
22838;DHT22;11585;51.450;-0.240;2023-04-03T16:31:50;12.40;99.90
22838;DHT22;11585;51.450;-0.240;2023-04-03T16:37:39;12.40;99.90
22838;DHT22;11585;51.450;-0.240;2023-04-03T16:40:09;12.40;99.90
22838;DHT22;11585;51.450;-0.240;2023-04-03T16:42:35;12.40;99.90
22838;DHT22;11585;51.450;-0.240;2023-04-03T16:45:01;12.40;99.90
22838;DHT22;11585;51.450;-0.240;2023-04-03T16:47:29;12.30;99.90
22838;DHT22;11585;51.450;-0.240;2023-04-03T16:49:55;12.40;99.90
22838;DHT22;11585;51.450;-0.240;2023-04-03T16:52:20;12.40;99.90
22838;DHT22;11585;51.450;-0.240;2023-04-03T16:55:05;12.30;99.90
22838;DHT22;11585;51.450;-0.240;2023-04-03T16:57:30;12.30;99.90
22838;DHT22;11585;51.450;-0.240;2023-04-03T16:59:56;12.30;99.90
22838;DHT22;11585;51.450;-0.240;2023-04-03T17:02:22;12.30;99.90
22838;DHT22;11585;51.450;-0.240;2023-04-03T17:04:51;12.20;99.90
22838;DHT22;11585;51.450;-0.240;2023-04-03T17:07:18;12.30;99.90
22838;DHT22;11585;51.450;-0.240;2023-04-03T17:09:44;12.30;99.90
22838;DHT22;11585;51.450;-0.240;2023-04-03T17:12:10;12.20;99.90
22838;DHT22;11585;51.450;-0.240;2023-04-03T17:18:02;12.20;99.90
22838;DHT22;11585;51.450;-0.240;2023-04-03T17:20:49;12.20;99.90
22838;DHT22;11585;51.450;-0.240;2023-04-03T17:23:14;12.20;99.90
22838;DHT22;11585;51.450;-0.240;2023-04-03T17:26:02;12.10;99.90
22838;DHT22;11585;51.450;-0.240;2023-04-03T17:28:28;12.10;99.90
22838;DHT22;11585;51.450;-0.240;2023-04-03T17:30:55;12.10;99.90
22838;DHT22;11585;51.450;-0.240;2023-04-03T17:33:21;12.10;99.90
22838;DHT22;11585;51.450;-0.240;2023-04-03T17:42:02;12.00;99.90
22838;DHT22;11585;51.450;-0.240;2023-04-03T17:44:33;12.00;99.90
22838;DHT22;11585;51.450;-0.240;2023-04-03T17:46:59;12.00;99.90
22838;DHT22;11585;51.450;-0.240;2023-04-03T17:49:25;12.00;99.90
22838;DHT22;11585;51.450;-0.240;2023-04-03T17:51:50;11.90;99.90
22838;DHT22;11585;51.450;-0.240;2023-04-03T17:57:22;11.90;99.90
22838;DHT22;11585;51.450;-0.240;2023-04-03T17:59:48;11.80;99.90
22838;DHT22;11585;51.450;-0.240;2023-04-03T18:02:13;11.70;99.90
22838;DHT22;11585;51.450;-0.240;2023-04-03T18:04:59;11.90;99.90
22838;DHT22;11585;51.450;-0.240;2023-04-03T18:07:26;11.70;99.90
22838;DHT22;11585;51.450;-0.240;2023-04-03T18:09:52;11.70;99.90
22838;DHT22;11585;51.450;-0.240;2023-04-03T18:12:21;11.60;99.90
22838;DHT22;11585;51.450;-0.240;2023-04-03T18:15:06;11.60;99.90
22838;DHT22;11585;51.450;-0.240;2023-04-03T18:17:31;11.60;99.90
22838;DHT22;11585;51.450;-0.240;2023-04-03T18:19:57;11.60;99.90
22838;DHT22;11585;51.450;-0.240;2023-04-03T18:22:26;11.70;99.90
22838;DHT22;11585;51.450;-0.240;2023-04-03T18:28:00;11.50;99.90
22838;DHT22;11585;51.450;-0.240;2023-04-03T18:30:31;11.40;99.90
22838;DHT22;11585;51.450;-0.240;2023-04-03T18:32:57;11.40;99.90
22838;DHT22;11585;51.450;-0.240;2023-04-03T18:38:26;11.40;99.90
22838;DHT22;11585;51.450;-0.240;2023-04-03T18:40:52;11.30;99.90
22838;DHT22;11585;51.450;-0.240;2023-04-03T18:43:17;11.30;99.90
22838;DHT22;11585;51.450;-0.240;2023-04-03T18:49:05;11.30;99.90
22838;DHT22;11585;51.450;-0.240;2023-04-03T18:51:36;11.10;99.90
22838;DHT22;11585;51.450;-0.240;2023-04-03T18:54:05;11.20;99.90
22838;DHT22;11585;51.450;-0.240;2023-04-03T18:56:35;11.20;99.90
22838;DHT22;11585;51.450;-0.240;2023-04-03T18:59:01;11.10;99.90
22838;DHT22;11585;51.450;-0.240;2023-04-03T19:01:27;11.10;99.90
22838;DHT22;11585;51.450;-0.240;2023-04-03T19:03:52;11.10;99.90
22838;DHT22;11585;51.450;-0.240;2023-04-03T19:06:38;11.00;99.90
22838;DHT22;11585;51.450;-0.240;2023-04-03T19:09:05;11.00;99.90
22838;DHT22;11585;51.450;-0.240;2023-04-03T19:11:32;11.00;99.90
22838;DHT22;11585;51.450;-0.240;2023-04-03T19:13:58;11.00;99.90
22838;DHT22;11585;51.450;-0.240;2023-04-03T19:16:24;11.00;99.90
22838;DHT22;11585;51.450;-0.240;2023-04-03T19:18:50;10.90;99.90
22838;DHT22;11585;51.450;-0.240;2023-04-03T19:21:16;10.90;99.90
22838;DHT22;11585;51.450;-0.240;2023-04-03T19:23:41;10.90;99.90